sensor_id;sensor_type;location;lat;lon;timestamp;P1;durP1;ratioP1;P2;durP2;ratioP2
5871;SDS011;2962;51.312;7.378;2023-08-24T00:01:02;6.30;;;4.70;;
5871;SDS011;2962;51.312;7.378;2023-08-24T00:03:27;6.07;;;5.37;;
5871;SDS011;2962;51.312;7.378;2023-08-24T00:05:53;7.43;;;5.83;;
5871;SDS011;2962;51.312;7.378;2023-08-24T00:08:19;5.83;;;5.33;;
5871;SDS011;2962;51.312;7.378;2023-08-24T00:10:44;7.50;;;6.40;;
5871;SDS011;2962;51.312;7.378;2023-08-24T00:13:13;7.60;;;5.80;;
5871;SDS011;2962;51.312;7.378;2023-08-24T00:15:39;6.70;;;6.10;;
5871;SDS011;2962;51.312;7.378;2023-08-24T00:18:04;6.53;;;5.93;;
5871;SDS011;2962;51.312;7.378;2023-08-24T00:20:31;5.93;;;5.30;;
5871;SDS011;2962;51.312;7.378;2023-08-24T00:22:59;9.30;;;6.27;;
5871;SDS011;2962;51.312;7.378;2023-08-24T00:25:25;7.13;;;6.17;;
5871;SDS011;2962;51.312;7.378;2023-08-24T00:27:54;6.40;;;5.57;;
5871;SDS011;2962;51.312;7.378;2023-08-24T00:30:19;6.13;;;5.63;;
5871;SDS011;2962;51.312;7.378;2023-08-24T00:32:45;12.20;;;5.97;;
5871;SDS011;2962;51.312;7.378;2023-08-24T00:35:10;13.30;;;5.70;;
5871;SDS011;2962;51.312;7.378;2023-08-24T00:37:41;8.50;;;6.03;;
5871;SDS011;2962;51.312;7.378;2023-08-24T00:40:06;10.67;;;5.50;;
5871;SDS011;2962;51.312;7.378;2023-08-24T00:42:40;6.90;;;5.97;;
5871;SDS011;2962;51.312;7.378;2023-08-24T00:45:07;6.73;;;6.10;;
5871;SDS011;2962;51.312;7.378;2023-08-24T00:47:34;7.33;;;4.50;;
5871;SDS011;2962;51.312;7.378;2023-08-24T00:50:00;5.17;;;3.87;;
5871;SDS011;2962;51.312;7.378;2023-08-24T00:52:26;13.43;;;4.47;;
5871;SDS011;2962;51.312;7.378;2023-08-24T00:54:54;4.67;;;4.27;;
5871;SDS011;2962;51.312;7.378;2023-08-24T00:57:19;4.27;;;3.97;;
5871;SDS011;2962;51.312;7.378;2023-08-24T00:59:45;4.73;;;4.37;;
5871;SDS011;2962;51.312;7.378;2023-08-24T01:02:11;6.77;;;4.63;;
5871;SDS011;2962;51.312;7.378;2023-08-24T01:04:37;4.47;;;4.00;;
5871;SDS011;2962;51.312;7.378;2023-08-24T01:07:02;5.40;;;3.90;;
5871;SDS011;2962;51.312;7.378;2023-08-24T01:09:27;5.50;;;3.57;;
5871;SDS011;2962;51.312;7.378;2023-08-24T01:11:58;3.13;;;2.80;;
5871;SDS011;2962;51.312;7.378;2023-08-24T01:17:01;3.40;;;3.10;;
5871;SDS011;2962;51.312;7.378;2023-08-24T01:21:54;3.87;;;2.90;;
5871;SDS011;2962;51.312;7.378;2023-08-24T01:24:58;5.03;;;3.73;;
5871;SDS011;2962;51.312;7.378;2023-08-24T01:27:18;3.53;;;3.23;;
5871;SDS011;2962;51.312;7.378;2023-08-24T01:29:46;3.50;;;3.20;;
5871;SDS011;2962;51.312;7.378;2023-08-24T01:32:12;3.77;;;3.47;;
5871;SDS011;2962;51.312;7.378;2023-08-24T01:34:37;4.83;;;3.53;;
5871;SDS011;2962;51.312;7.378;2023-08-24T01:37:03;6.63;;;3.40;;
5871;SDS011;2962;51.312;7.378;2023-08-24T01:39:35;5.47;;;3.40;;
5871;SDS011;2962;51.312;7.378;2023-08-24T01:42:08;3.37;;;3.10;;
5871;SDS011;2962;51.312;7.378;2023-08-24T01:44:39;2.90;;;2.80;;
5871;SDS011;2962;51.312;7.378;2023-08-24T01:47:07;4.90;;;3.63;;
5871;SDS011;2962;51.312;7.378;2023-08-24T01:49:36;3.50;;;3.23;;
5871;SDS011;2962;51.312;7.378;2023-08-24T01:52:03;3.30;;;3.20;;
5871;SDS011;2962;51.312;7.378;2023-08-24T01:54:29;10.93;;;3.70;;
5871;SDS011;2962;51.312;7.378;2023-08-24T01:56:55;14.20;;;4.17;;
5871;SDS011;2962;51.312;7.378;2023-08-24T01:59:21;4.20;;;3.90;;
5871;SDS011;2962;51.312;7.378;2023-08-24T02:01:46;3.67;;;3.40;;
5871;SDS011;2962;51.312;7.378;2023-08-24T02:04:11;7.57;;;4.17;;
5871;SDS011;2962;51.312;7.378;2023-08-24T02:06:36;5.27;;;3.80;;
5871;SDS011;2962;51.312;7.378;2023-08-24T02:09:02;4.43;;;3.80;;
5871;SDS011;2962;51.312;7.378;2023-08-24T02:11:27;7.27;;;3.50;;
5871;SDS011;2962;51.312;7.378;2023-08-24T02:13:52;4.30;;;4.00;;
5871;SDS011;2962;51.312;7.378;2023-08-24T02:16:18;3.90;;;3.60;;
5871;SDS011;2962;51.312;7.378;2023-08-24T02:18:43;9.33;;;3.20;;
5871;SDS011;2962;51.312;7.378;2023-08-24T02:21:08;5.50;;;3.30;;
5871;SDS011;2962;51.312;7.378;2023-08-24T02:23:37;3.70;;;3.50;;
5871;SDS011;2962;51.312;7.378;2023-08-24T02:26:03;3.37;;;3.27;;
5871;SDS011;2962;51.312;7.378;2023-08-24T02:28:29;3.57;;;3.27;;
5871;SDS011;2962;51.312;7.378;2023-08-24T02:30:55;3.47;;;3.17;;
5871;SDS011;2962;51.312;7.378;2023-08-24T02:33:25;3.23;;;2.80;;
5871;SDS011;2962;51.312;7.378;2023-08-24T02:35:50;3.87;;;3.17;;
5871;SDS011;2962;51.312;7.378;2023-08-24T02:38:16;3.63;;;2.70;;
5871;SDS011;2962;51.312;7.378;2023-08-24T02:40:41;3.80;;;3.47;;
5871;SDS011;2962;51.312;7.378;2023-08-24T02:43:06;3.40;;;3.20;;
5871;SDS011;2962;51.312;7.378;2023-08-24T02:45:32;2.87;;;2.87;;
5871;SDS011;2962;51.312;7.378;2023-08-24T02:47:58;4.13;;;2.97;;
5871;SDS011;2962;51.312;7.378;2023-08-24T02:50:23;3.20;;;3.00;;
5871;SDS011;2962;51.312;7.378;2023-08-24T02:52:48;3.57;;;3.27;;
5871;SDS011;2962;51.312;7.378;2023-08-24T02:55:13;3.00;;;2.90;;
5871;SDS011;2962;51.312;7.378;2023-08-24T02:57:39;3.77;;;3.47;;
5871;SDS011;2962;51.312;7.378;2023-08-24T03:00:04;5.00;;;3.47;;
5871;SDS011;2962;51.312;7.378;2023-08-24T03:02:31;3.93;;;3.60;;
5871;SDS011;2962;51.312;7.378;2023-08-24T03:04:57;2.80;;;2.70;;
5871;SDS011;2962;51.312;7.378;2023-08-24T03:07:22;7.30;;;3.30;;
5871;SDS011;2962;51.312;7.378;2023-08-24T03:09:47;4.27;;;3.00;;
5871;SDS011;2962;51.312;7.378;2023-08-24T03:12:13;3.00;;;2.90;;
5871;SDS011;2962;51.312;7.378;2023-08-24T03:14:38;4.80;;;3.33;;
5871;SDS011;2962;51.312;7.378;2023-08-24T03:17:03;3.57;;;3.33;;
5871;SDS011;2962;51.312;7.378;2023-08-24T03:19:29;4.20;;;3.10;;
5871;SDS011;2962;51.312;7.378;2023-08-24T03:21:55;3.80;;;3.53;;
5871;SDS011;2962;51.312;7.378;2023-08-24T03:24:20;7.17;;;3.40;;
5871;SDS011;2962;51.312;7.378;2023-08-24T03:26:45;4.23;;;3.70;;
5871;SDS011;2962;51.312;7.378;2023-08-24T03:29:10;7.30;;;3.60;;
5871;SDS011;2962;51.312;7.378;2023-08-24T03:31:36;4.20;;;3.80;;
5871;SDS011;2962;51.312;7.378;2023-08-24T03:34:01;5.73;;;3.63;;
5871;SDS011;2962;51.312;7.378;2023-08-24T03:36:28;4.17;;;3.80;;
5871;SDS011;2962;51.312;7.378;2023-08-24T03:38:54;3.97;;;3.40;;
5871;SDS011;2962;51.312;7.378;2023-08-24T03:41:19;3.67;;;3.27;;
5871;SDS011;2962;51.312;7.378;2023-08-24T03:43:44;5.93;;;3.43;;
5871;SDS011;2962;51.312;7.378;2023-08-24T03:46:09;3.70;;;3.40;;
5871;SDS011;2962;51.312;7.378;2023-08-24T03:48:35;4.03;;;3.67;;
5871;SDS011;2962;51.312;7.378;2023-08-24T03:51:00;3.67;;;3.37;;
5871;SDS011;2962;51.312;7.378;2023-08-24T03:53:26;3.93;;;3.53;;
5871;SDS011;2962;51.312;7.378;2023-08-24T03:55:52;6.63;;;4.07;;
5871;SDS011;2962;51.312;7.378;2023-08-24T03:58:18;4.50;;;3.73;;
5871;SDS011;2962;51.312;7.378;2023-08-24T04:00:43;5.57;;;4.03;;
5871;SDS011;2962;51.312;7.378;2023-08-24T04:03:09;7.00;;;3.60;;
5871;SDS011;2962;51.312;7.378;2023-08-24T04:05:35;3.60;;;3.50;;
5871;SDS011;2962;51.312;7.378;2023-08-24T04:08:00;7.47;;;3.80;;
5871;SDS011;2962;51.312;7.378;2023-08-24T04:10:26;5.10;;;3.83;;
5871;SDS011;2962;51.312;7.378;2023-08-24T04:12:52;5.03;;;3.83;;
5871;SDS011;2962;51.312;7.378;2023-08-24T04:15:17;9.37;;;4.10;;
5871;SDS011;2962;51.312;7.378;2023-08-24T04:17:43;4.40;;;3.67;;
5871;SDS011;2962;51.312;7.378;2023-08-24T04:20:08;4.37;;;3.87;;
5871;SDS011;2962;51.312;7.378;2023-08-24T04:22:34;4.57;;;4.17;;
5871;SDS011;2962;51.312;7.378;2023-08-24T04:24:59;4.60;;;3.90;;
5871;SDS011;2962;51.312;7.378;2023-08-24T04:27:25;5.27;;;4.33;;
5871;SDS011;2962;51.312;7.378;2023-08-24T04:29:50;8.20;;;4.20;;
5871;SDS011;2962;51.312;7.378;2023-08-24T04:32:15;4.60;;;4.10;;
5871;SDS011;2962;51.312;7.378;2023-08-24T04:34:41;6.87;;;3.90;;
5871;SDS011;2962;51.312;7.378;2023-08-24T04:37:06;3.90;;;3.60;;
5871;SDS011;2962;51.312;7.378;2023-08-24T04:39:32;5.97;;;4.50;;
5871;SDS011;2962;51.312;7.378;2023-08-24T04:41:57;8.13;;;4.53;;
5871;SDS011;2962;51.312;7.378;2023-08-24T04:44:23;7.30;;;4.77;;
5871;SDS011;2962;51.312;7.378;2023-08-24T04:46:49;6.70;;;4.10;;
5871;SDS011;2962;51.312;7.378;2023-08-24T04:49:14;4.83;;;4.50;;
5871;SDS011;2962;51.312;7.378;2023-08-24T04:51:40;4.90;;;4.23;;
5871;SDS011;2962;51.312;7.378;2023-08-24T04:54:05;7.80;;;4.60;;
5871;SDS011;2962;51.312;7.378;2023-08-24T04:56:30;5.17;;;4.47;;
5871;SDS011;2962;51.312;7.378;2023-08-24T04:58:56;8.13;;;5.40;;
5871;SDS011;2962;51.312;7.378;2023-08-24T05:01:25;5.50;;;4.87;;
5871;SDS011;2962;51.312;7.378;2023-08-24T05:03:51;14.37;;;5.00;;
5871;SDS011;2962;51.312;7.378;2023-08-24T05:06:17;8.77;;;5.57;;
5871;SDS011;2962;51.312;7.378;2023-08-24T05:08:43;9.10;;;5.27;;
5871;SDS011;2962;51.312;7.378;2023-08-24T05:11:16;14.50;;;6.10;;
5871;SDS011;2962;51.312;7.378;2023-08-24T05:13:43;7.97;;;5.70;;
5871;SDS011;2962;51.312;7.378;2023-08-24T05:16:09;12.53;;;6.40;;
5871;SDS011;2962;51.312;7.378;2023-08-24T05:18:35;11.37;;;6.10;;
5871;SDS011;2962;51.312;7.378;2023-08-24T05:21:04;13.67;;;6.87;;
5871;SDS011;2962;51.312;7.378;2023-08-24T05:23:30;9.10;;;6.17;;
5871;SDS011;2962;51.312;7.378;2023-08-24T05:25:56;7.57;;;5.57;;
5871;SDS011;2962;51.312;7.378;2023-08-24T05:28:22;8.13;;;6.07;;
5871;SDS011;2962;51.312;7.378;2023-08-24T05:30:48;9.67;;;6.10;;
5871;SDS011;2962;51.312;7.378;2023-08-24T05:33:13;7.00;;;6.40;;
5871;SDS011;2962;51.312;7.378;2023-08-24T05:35:39;9.40;;;6.10;;
5871;SDS011;2962;51.312;7.378;2023-08-24T05:38:04;6.50;;;5.70;;
5871;SDS011;2962;51.312;7.378;2023-08-24T05:40:29;12.07;;;5.87;;
5871;SDS011;2962;51.312;7.378;2023-08-24T05:42:55;8.93;;;6.07;;
5871;SDS011;2962;51.312;7.378;2023-08-24T05:45:20;7.93;;;6.37;;
5871;SDS011;2962;51.312;7.378;2023-08-24T05:47:46;5.90;;;5.40;;
5871;SDS011;2962;51.312;7.378;2023-08-24T05:50:11;6.30;;;5.77;;
5871;SDS011;2962;51.312;7.378;2023-08-24T05:52:36;11.07;;;5.10;;
5871;SDS011;2962;51.312;7.378;2023-08-24T05:55:02;10.93;;;6.63;;
5871;SDS011;2962;51.312;7.378;2023-08-24T05:57:27;9.57;;;5.40;;
5871;SDS011;2962;51.312;7.378;2023-08-24T05:59:53;11.50;;;5.87;;
5871;SDS011;2962;51.312;7.378;2023-08-24T06:02:18;4.90;;;4.47;;
5871;SDS011;2962;51.312;7.378;2023-08-24T06:04:43;5.70;;;4.50;;
5871;SDS011;2962;51.312;7.378;2023-08-24T06:07:09;5.30;;;4.87;;
5871;SDS011;2962;51.312;7.378;2023-08-24T06:09:34;8.30;;;4.60;;
5871;SDS011;2962;51.312;7.378;2023-08-24T06:11:59;7.53;;;5.93;;
5871;SDS011;2962;51.312;7.378;2023-08-24T06:14:25;5.33;;;4.70;;
5871;SDS011;2962;51.312;7.378;2023-08-24T06:16:50;9.47;;;4.83;;
5871;SDS011;2962;51.312;7.378;2023-08-24T06:19:18;5.67;;;5.10;;
5871;SDS011;2962;51.312;7.378;2023-08-24T06:21:43;6.30;;;5.20;;
5871;SDS011;2962;51.312;7.378;2023-08-24T06:24:08;5.80;;;5.30;;
5871;SDS011;2962;51.312;7.378;2023-08-24T06:26:34;8.00;;;5.47;;
5871;SDS011;2962;51.312;7.378;2023-08-24T06:29:00;8.13;;;5.30;;
5871;SDS011;2962;51.312;7.378;2023-08-24T06:31:25;4.57;;;4.30;;
5871;SDS011;2962;51.312;7.378;2023-08-24T06:33:50;5.03;;;4.60;;
5871;SDS011;2962;51.312;7.378;2023-08-24T06:36:15;4.50;;;4.20;;
5871;SDS011;2962;51.312;7.378;2023-08-24T06:38:41;5.13;;;4.40;;
5871;SDS011;2962;51.312;7.378;2023-08-24T06:41:06;8.63;;;4.90;;
5871;SDS011;2962;51.312;7.378;2023-08-24T06:43:36;5.40;;;4.60;;
5871;SDS011;2962;51.312;7.378;2023-08-24T06:46:03;9.30;;;4.63;;
5871;SDS011;2962;51.312;7.378;2023-08-24T06:48:29;6.13;;;5.20;;
5871;SDS011;2962;51.312;7.378;2023-08-24T06:50:54;7.23;;;4.43;;
5871;SDS011;2962;51.312;7.378;2023-08-24T06:53:19;5.13;;;4.63;;
5871;SDS011;2962;51.312;7.378;2023-08-24T06:55:45;5.50;;;4.30;;
5871;SDS011;2962;51.312;7.378;2023-08-24T06:58:10;4.27;;;3.90;;
5871;SDS011;2962;51.312;7.378;2023-08-24T07:00:35;9.60;;;3.93;;
5871;SDS011;2962;51.312;7.378;2023-08-24T07:03:00;4.40;;;4.00;;
5871;SDS011;2962;51.312;7.378;2023-08-24T07:05:26;3.87;;;3.67;;
5871;SDS011;2962;51.312;7.378;2023-08-24T07:07:51;5.13;;;3.87;;
5871;SDS011;2962;51.312;7.378;2023-08-24T07:10:18;4.30;;;4.00;;
5871;SDS011;2962;51.312;7.378;2023-08-24T07:12:44;3.60;;;3.40;;
5871;SDS011;2962;51.312;7.378;2023-08-24T07:15:10;3.80;;;3.10;;
5871;SDS011;2962;51.312;7.378;2023-08-24T07:17:36;3.00;;;2.60;;
5871;SDS011;2962;51.312;7.378;2023-08-24T07:20:02;6.00;;;3.47;;
5871;SDS011;2962;51.312;7.378;2023-08-24T07:22:30;5.20;;;3.50;;
5871;SDS011;2962;51.312;7.378;2023-08-24T07:24:56;3.80;;;3.40;;
5871;SDS011;2962;51.312;7.378;2023-08-24T07:27:21;3.23;;;3.03;;
5871;SDS011;2962;51.312;7.378;2023-08-24T07:29:46;2.50;;;2.40;;
5871;SDS011;2962;51.312;7.378;2023-08-24T07:32:12;2.33;;;2.33;;
5871;SDS011;2962;51.312;7.378;2023-08-24T07:34:37;7.00;;;2.90;;
5871;SDS011;2962;51.312;7.378;2023-08-24T07:37:02;2.40;;;2.30;;
5871;SDS011;2962;51.312;7.378;2023-08-24T07:39:28;2.40;;;2.20;;
5871;SDS011;2962;51.312;7.378;2023-08-24T07:41:53;3.07;;;2.53;;
5871;SDS011;2962;51.312;7.378;2023-08-24T07:44:19;3.23;;;2.73;;
5871;SDS011;2962;51.312;7.378;2023-08-24T07:46:44;2.50;;;2.40;;
5871;SDS011;2962;51.312;7.378;2023-08-24T07:49:10;2.20;;;2.10;;
5871;SDS011;2962;51.312;7.378;2023-08-24T07:51:35;2.07;;;1.87;;
5871;SDS011;2962;51.312;7.378;2023-08-24T07:54:01;1.77;;;1.73;;
5871;SDS011;2962;51.312;7.378;2023-08-24T07:56:29;5.50;;;2.40;;
5871;SDS011;2962;51.312;7.378;2023-08-24T07:58:54;2.53;;;2.40;;
5871;SDS011;2962;51.312;7.378;2023-08-24T08:01:20;3.77;;;2.40;;
5871;SDS011;2962;51.312;7.378;2023-08-24T08:03:45;2.20;;;2.20;;
5871;SDS011;2962;51.312;7.378;2023-08-24T08:06:10;6.23;;;2.20;;
5871;SDS011;2962;51.312;7.378;2023-08-24T08:08:37;7.80;;;2.20;;
5871;SDS011;2962;51.312;7.378;2023-08-24T08:11:02;2.23;;;1.90;;
5871;SDS011;2962;51.312;7.378;2023-08-24T08:13:28;3.63;;;1.70;;
5871;SDS011;2962;51.312;7.378;2023-08-24T08:16:00;2.07;;;1.97;;
5871;SDS011;2962;51.312;7.378;2023-08-24T08:18:26;1.87;;;1.77;;
5871;SDS011;2962;51.312;7.378;2023-08-24T08:20:51;4.90;;;2.03;;
5871;SDS011;2962;51.312;7.378;2023-08-24T08:23:17;2.10;;;2.00;;
5871;SDS011;2962;51.312;7.378;2023-08-24T08:25:42;3.33;;;2.13;;
5871;SDS011;2962;51.312;7.378;2023-08-24T08:28:08;2.50;;;2.30;;
5871;SDS011;2962;51.312;7.378;2023-08-24T08:30:33;2.17;;;2.03;;
5871;SDS011;2962;51.312;7.378;2023-08-24T08:32:58;2.13;;;2.10;;
5871;SDS011;2962;51.312;7.378;2023-08-24T08:35:24;2.70;;;2.00;;
5871;SDS011;2962;51.312;7.378;2023-08-24T08:37:49;4.70;;;1.67;;
5871;SDS011;2962;51.312;7.378;2023-08-24T08:40:15;2.20;;;2.00;;
5871;SDS011;2962;51.312;7.378;2023-08-24T08:42:42;2.53;;;2.10;;
5871;SDS011;2962;51.312;7.378;2023-08-24T08:45:09;2.10;;;2.10;;
5871;SDS011;2962;51.312;7.378;2023-08-24T08:47:35;2.30;;;2.10;;
5871;SDS011;2962;51.312;7.378;2023-08-24T08:50:01;2.87;;;2.30;;
5871;SDS011;2962;51.312;7.378;2023-08-24T08:52:28;2.20;;;2.10;;
5871;SDS011;2962;51.312;7.378;2023-08-24T08:54:53;4.83;;;2.53;;
5871;SDS011;2962;51.312;7.378;2023-08-24T08:57:19;2.50;;;2.30;;
5871;SDS011;2962;51.312;7.378;2023-08-24T08:59:47;1.77;;;1.77;;
5871;SDS011;2962;51.312;7.378;2023-08-24T09:02:16;2.20;;;2.10;;
5871;SDS011;2962;51.312;7.378;2023-08-24T09:04:43;2.03;;;1.93;;
5871;SDS011;2962;51.312;7.378;2023-08-24T09:07:10;1.93;;;1.93;;
5871;SDS011;2962;51.312;7.378;2023-08-24T09:09:37;2.70;;;2.60;;
5871;SDS011;2962;51.312;7.378;2023-08-24T09:12:03;2.33;;;2.23;;
5871;SDS011;2962;51.312;7.378;2023-08-24T09:14:31;3.10;;;2.80;;
5871;SDS011;2962;51.312;7.378;2023-08-24T09:16:56;3.13;;;2.37;;
5871;SDS011;2962;51.312;7.378;2023-08-24T09:19:27;2.20;;;2.00;;
5871;SDS011;2962;51.312;7.378;2023-08-24T09:21:58;2.23;;;2.13;;
5871;SDS011;2962;51.312;7.378;2023-08-24T09:24:30;2.87;;;2.03;;
5871;SDS011;2962;51.312;7.378;2023-08-24T09:26:57;2.30;;;2.20;;
5871;SDS011;2962;51.312;7.378;2023-08-24T09:29:22;2.23;;;2.03;;
5871;SDS011;2962;51.312;7.378;2023-08-24T09:31:49;2.00;;;2.00;;
5871;SDS011;2962;51.312;7.378;2023-08-24T09:34:15;2.30;;;2.20;;
5871;SDS011;2962;51.312;7.378;2023-08-24T09:36:45;2.10;;;2.10;;
5871;SDS011;2962;51.312;7.378;2023-08-24T09:39:10;7.40;;;2.60;;
5871;SDS011;2962;51.312;7.378;2023-08-24T09:41:39;4.97;;;2.20;;
5871;SDS011;2962;51.312;7.378;2023-08-24T09:44:06;2.60;;;2.20;;
5871;SDS011;2962;51.312;7.378;2023-08-24T09:46:32;2.80;;;2.60;;
5871;SDS011;2962;51.312;7.378;2023-08-24T09:48:57;5.23;;;2.53;;
5871;SDS011;2962;51.312;7.378;2023-08-24T09:51:26;3.77;;;2.20;;
5871;SDS011;2962;51.312;7.378;2023-08-24T09:53:51;3.20;;;2.30;;
5871;SDS011;2962;51.312;7.378;2023-08-24T09:56:21;2.43;;;2.33;;
5871;SDS011;2962;51.312;7.378;2023-08-24T09:58:50;2.27;;;2.17;;
5871;SDS011;2962;51.312;7.378;2023-08-24T10:01:18;3.03;;;2.70;;
5871;SDS011;2962;51.312;7.378;2023-08-24T10:03:45;3.53;;;2.50;;
5871;SDS011;2962;51.312;7.378;2023-08-24T10:06:11;3.80;;;2.37;;
5871;SDS011;2962;51.312;7.378;2023-08-24T10:08:39;2.40;;;2.20;;
5871;SDS011;2962;51.312;7.378;2023-08-24T10:11:11;2.40;;;2.30;;
5871;SDS011;2962;51.312;7.378;2023-08-24T10:13:50;2.37;;;2.23;;
5871;SDS011;2962;51.312;7.378;2023-08-24T10:16:37;2.40;;;2.30;;
5871;SDS011;2962;51.312;7.378;2023-08-24T10:19:03;2.80;;;2.60;;
5871;SDS011;2962;51.312;7.378;2023-08-24T10:21:29;2.10;;;2.00;;
5871;SDS011;2962;51.312;7.378;2023-08-24T10:23:56;2.60;;;2.07;;
5871;SDS011;2962;51.312;7.378;2023-08-24T10:26:22;5.13;;;2.17;;
5871;SDS011;2962;51.312;7.378;2023-08-24T10:28:48;5.50;;;2.23;;
5871;SDS011;2962;51.312;7.378;2023-08-24T10:31:15;2.93;;;2.83;;
5871;SDS011;2962;51.312;7.378;2023-08-24T10:33:41;1.90;;;1.90;;
5871;SDS011;2962;51.312;7.378;2023-08-24T10:36:09;2.50;;;2.30;;
5871;SDS011;2962;51.312;7.378;2023-08-24T10:38:35;4.10;;;2.73;;
5871;SDS011;2962;51.312;7.378;2023-08-24T10:41:07;8.47;;;2.80;;
5871;SDS011;2962;51.312;7.378;2023-08-24T10:43:36;2.63;;;2.53;;
5871;SDS011;2962;51.312;7.378;2023-08-24T10:46:02;3.53;;;2.70;;
5871;SDS011;2962;51.312;7.378;2023-08-24T10:53:50;3.13;;;2.37;;
5871;SDS011;2962;51.312;7.378;2023-08-24T10:56:18;2.57;;;2.43;;
5871;SDS011;2962;51.312;7.378;2023-08-24T10:58:44;2.93;;;2.70;;
5871;SDS011;2962;51.312;7.378;2023-08-24T11:01:17;2.90;;;2.23;;
5871;SDS011;2962;51.312;7.378;2023-08-24T11:03:49;3.27;;;2.00;;
5871;SDS011;2962;51.312;7.378;2023-08-24T11:06:20;5.93;;;1.93;;
5871;SDS011;2962;51.312;7.378;2023-08-24T11:08:46;4.53;;;2.70;;
5871;SDS011;2962;51.312;7.378;2023-08-24T11:11:18;6.43;;;2.53;;
5871;SDS011;2962;51.312;7.378;2023-08-24T11:14:12;5.60;;;2.70;;
5871;SDS011;2962;51.312;7.378;2023-08-24T11:16:43;2.40;;;2.13;;
5871;SDS011;2962;51.312;7.378;2023-08-24T11:19:13;3.40;;;2.43;;
5871;SDS011;2962;51.312;7.378;2023-08-24T11:21:38;2.13;;;2.03;;
5871;SDS011;2962;51.312;7.378;2023-08-24T11:24:05;2.37;;;2.27;;
5871;SDS011;2962;51.312;7.378;2023-08-24T11:26:31;2.93;;;2.20;;
5871;SDS011;2962;51.312;7.378;2023-08-24T11:28:56;2.27;;;2.13;;
5871;SDS011;2962;51.312;7.378;2023-08-24T11:31:23;2.27;;;2.27;;
5871;SDS011;2962;51.312;7.378;2023-08-24T11:33:54;3.20;;;3.00;;
5871;SDS011;2962;51.312;7.378;2023-08-24T11:36:21;4.67;;;2.20;;
5871;SDS011;2962;51.312;7.378;2023-08-24T11:38:48;2.10;;;2.10;;
5871;SDS011;2962;51.312;7.378;2023-08-24T11:41:15;3.20;;;2.67;;
5871;SDS011;2962;51.312;7.378;2023-08-24T11:43:44;2.37;;;2.27;;
5871;SDS011;2962;51.312;7.378;2023-08-24T11:46:12;5.03;;;2.57;;
5871;SDS011;2962;51.312;7.378;2023-08-24T11:48:38;4.00;;;2.50;;
5871;SDS011;2962;51.312;7.378;2023-08-24T11:51:06;2.40;;;2.30;;
5871;SDS011;2962;51.312;7.378;2023-08-24T11:53:36;2.73;;;2.50;;
5871;SDS011;2962;51.312;7.378;2023-08-24T11:56:02;5.40;;;2.40;;
5871;SDS011;2962;51.312;7.378;2023-08-24T11:58:27;2.70;;;2.50;;
5871;SDS011;2962;51.312;7.378;2023-08-24T12:00:52;5.43;;;2.57;;
5871;SDS011;2962;51.312;7.378;2023-08-24T12:03:18;3.20;;;2.40;;
5871;SDS011;2962;51.312;7.378;2023-08-24T12:05:43;2.00;;;2.00;;
5871;SDS011;2962;51.312;7.378;2023-08-24T12:08:10;2.47;;;2.37;;
5871;SDS011;2962;51.312;7.378;2023-08-24T12:10:41;3.77;;;2.40;;
5871;SDS011;2962;51.312;7.378;2023-08-24T12:13:07;2.87;;;2.67;;
5871;SDS011;2962;51.312;7.378;2023-08-24T12:15:36;2.17;;;2.00;;
5871;SDS011;2962;51.312;7.378;2023-08-24T12:18:11;2.30;;;2.20;;
5871;SDS011;2962;51.312;7.378;2023-08-24T12:20:38;3.43;;;2.50;;
5871;SDS011;2962;51.312;7.378;2023-08-24T12:23:05;2.30;;;2.20;;
5871;SDS011;2962;51.312;7.378;2023-08-24T12:25:35;3.10;;;2.50;;
5871;SDS011;2962;51.312;7.378;2023-08-24T12:28:10;3.83;;;2.47;;
5871;SDS011;2962;51.312;7.378;2023-08-24T12:30:59;2.83;;;2.50;;
5871;SDS011;2962;51.312;7.378;2023-08-24T12:33:28;5.03;;;2.37;;
5871;SDS011;2962;51.312;7.378;2023-08-24T12:35:55;2.60;;;2.40;;
5871;SDS011;2962;51.312;7.378;2023-08-24T12:38:23;3.37;;;2.10;;
5871;SDS011;2962;51.312;7.378;2023-08-24T12:40:50;4.07;;;2.23;;
5871;SDS011;2962;51.312;7.378;2023-08-24T12:43:15;2.63;;;2.43;;
5871;SDS011;2962;51.312;7.378;2023-08-24T12:45:41;5.00;;;2.53;;
5871;SDS011;2962;51.312;7.378;2023-08-24T12:48:06;3.53;;;3.20;;
5871;SDS011;2962;51.312;7.378;2023-08-24T12:50:33;2.37;;;2.27;;
5871;SDS011;2962;51.312;7.378;2023-08-24T12:52:58;2.20;;;2.20;;
5871;SDS011;2962;51.312;7.378;2023-08-24T12:55:28;2.57;;;2.47;;
5871;SDS011;2962;51.312;7.378;2023-08-24T12:57:54;3.13;;;2.43;;
5871;SDS011;2962;51.312;7.378;2023-08-24T13:00:19;2.50;;;2.37;;
5871;SDS011;2962;51.312;7.378;2023-08-24T13:02:45;2.20;;;2.03;;
5871;SDS011;2962;51.312;7.378;2023-08-24T13:05:10;2.77;;;2.33;;
5871;SDS011;2962;51.312;7.378;2023-08-24T13:07:36;2.30;;;2.30;;
5871;SDS011;2962;51.312;7.378;2023-08-24T13:10:02;3.10;;;2.80;;
5871;SDS011;2962;51.312;7.378;2023-08-24T13:12:28;3.90;;;2.53;;
5871;SDS011;2962;51.312;7.378;2023-08-24T13:14:53;2.70;;;2.47;;
5871;SDS011;2962;51.312;7.378;2023-08-24T13:17:19;2.83;;;2.73;;
5871;SDS011;2962;51.312;7.378;2023-08-24T13:19:44;3.40;;;2.40;;
5871;SDS011;2962;51.312;7.378;2023-08-24T13:22:10;2.50;;;2.30;;
5871;SDS011;2962;51.312;7.378;2023-08-24T13:24:35;3.33;;;2.67;;
5871;SDS011;2962;51.312;7.378;2023-08-24T13:27:00;2.53;;;2.37;;
5871;SDS011;2962;51.312;7.378;2023-08-24T13:29:27;2.40;;;2.23;;
5871;SDS011;2962;51.312;7.378;2023-08-24T13:31:53;9.80;;;2.80;;
5871;SDS011;2962;51.312;7.378;2023-08-24T13:34:18;2.80;;;2.60;;
5871;SDS011;2962;51.312;7.378;2023-08-24T13:36:43;2.63;;;2.40;;
5871;SDS011;2962;51.312;7.378;2023-08-24T13:39:09;2.53;;;2.37;;
5871;SDS011;2962;51.312;7.378;2023-08-24T13:41:35;2.53;;;2.40;;
5871;SDS011;2962;51.312;7.378;2023-08-24T13:44:01;8.43;;;2.53;;
5871;SDS011;2962;51.312;7.378;2023-08-24T13:46:26;2.80;;;2.53;;
5871;SDS011;2962;51.312;7.378;2023-08-24T13:48:51;3.37;;;2.60;;
5871;SDS011;2962;51.312;7.378;2023-08-24T13:51:16;4.57;;;2.93;;
5871;SDS011;2962;51.312;7.378;2023-08-24T13:53:42;3.23;;;2.63;;
5871;SDS011;2962;51.312;7.378;2023-08-24T13:56:07;4.23;;;2.90;;
5871;SDS011;2962;51.312;7.378;2023-08-24T13:58:32;2.73;;;2.37;;
5871;SDS011;2962;51.312;7.378;2023-08-24T14:00:58;2.47;;;2.17;;
5871;SDS011;2962;51.312;7.378;2023-08-24T14:03:23;3.00;;;2.80;;
5871;SDS011;2962;51.312;7.378;2023-08-24T14:05:49;2.67;;;2.47;;
5871;SDS011;2962;51.312;7.378;2023-08-24T14:08:17;3.03;;;2.80;;
5871;SDS011;2962;51.312;7.378;2023-08-24T14:10:42;4.30;;;3.10;;
5871;SDS011;2962;51.312;7.378;2023-08-24T14:13:08;3.27;;;3.00;;
5871;SDS011;2962;51.312;7.378;2023-08-24T14:15:33;2.70;;;2.60;;
5871;SDS011;2962;51.312;7.378;2023-08-24T14:17:58;2.97;;;2.77;;
5871;SDS011;2962;51.312;7.378;2023-08-24T14:20:23;3.23;;;2.83;;
5871;SDS011;2962;51.312;7.378;2023-08-24T14:22:49;10.83;;;3.17;;
5871;SDS011;2962;51.312;7.378;2023-08-24T14:25:14;2.83;;;2.37;;
5871;SDS011;2962;51.312;7.378;2023-08-24T14:27:40;2.83;;;2.63;;
5871;SDS011;2962;51.312;7.378;2023-08-24T14:30:06;3.23;;;2.90;;
5871;SDS011;2962;51.312;7.378;2023-08-24T14:32:32;3.20;;;2.90;;
5871;SDS011;2962;51.312;7.378;2023-08-24T14:34:58;3.93;;;2.53;;
5871;SDS011;2962;51.312;7.378;2023-08-24T14:37:23;3.53;;;3.23;;
5871;SDS011;2962;51.312;7.378;2023-08-24T14:39:49;2.83;;;2.63;;
5871;SDS011;2962;51.312;7.378;2023-08-24T14:42:15;2.53;;;2.37;;
5871;SDS011;2962;51.312;7.378;2023-08-24T14:44:40;3.20;;;2.73;;
5871;SDS011;2962;51.312;7.378;2023-08-24T14:47:05;10.60;;;3.23;;
5871;SDS011;2962;51.312;7.378;2023-08-24T14:49:30;4.50;;;3.33;;
5871;SDS011;2962;51.312;7.378;2023-08-24T14:51:56;3.47;;;3.33;;
5871;SDS011;2962;51.312;7.378;2023-08-24T14:54:21;5.30;;;3.70;;
5871;SDS011;2962;51.312;7.378;2023-08-24T14:56:46;3.60;;;3.30;;
5871;SDS011;2962;51.312;7.378;2023-08-24T14:59:12;4.73;;;3.60;;
5871;SDS011;2962;51.312;7.378;2023-08-24T15:01:37;4.10;;;3.80;;
5871;SDS011;2962;51.312;7.378;2023-08-24T15:04:02;4.30;;;3.97;;
5871;SDS011;2962;51.312;7.378;2023-08-24T15:06:28;4.80;;;4.50;;
5871;SDS011;2962;51.312;7.378;2023-08-24T15:08:53;7.90;;;4.40;;
5871;SDS011;2962;51.312;7.378;2023-08-24T15:11:18;8.03;;;4.10;;
5871;SDS011;2962;51.312;7.378;2023-08-24T15:13:44;4.63;;;4.33;;
5871;SDS011;2962;51.312;7.378;2023-08-24T15:16:10;4.97;;;4.47;;
5871;SDS011;2962;51.312;7.378;2023-08-24T15:18:35;8.37;;;3.60;;
5871;SDS011;2962;51.312;7.378;2023-08-24T15:21:01;11.60;;;4.20;;